REAL TIME PLOT CHART

SmartGreenSpace

www.000webhost.com

REAL TIME DATA COLLECTION

TIME DATE MOISTURE CONTENT TEMPERATURE (oC) HUMIDITY (%) DAY HOUR Fuzzyfied Time of Irrigation
10:49:10 PM 31-10-2019 1 1 1 11000
2:48:29 AM 31-10-2019 419 31 95 6150
9:55:09 AM 22-10-2019 432 29 95 6140
8:42:39 AM 22-10-2019 421 29 95 6130
7:30:25 AM 22-10-2019 423 28 95 6120
6:18:13 AM 22-10-2019 422 28 95 6110
5:06:01 AM 22-10-2019 418 28 95 6100
3:53:49 AM 22-10-2019 423 29 95 690
2:41:37 AM 22-10-2019 434 29 95 680
1:29:24 AM 22-10-2019 443 29 95 670
12:17:09 AM 22-10-2019 434 29 95 660
11:04:57 PM 21-10-2019 444 29 95 650
9:52:43 PM 21-10-2019 452 29 95 640
6:15:37 PM 21-10-2019 421 32 95 610
6:12:36 PM 21-10-2019 421 32 95 610
5:00:17 PM 21-10-2019 418 32 95 5240
3:47:38 PM 21-10-2019 428 33 95 523129662
2:32:55 PM 21-10-2019 425 34 95 5220
1:19:13 PM 21-10-2019 427 32 95 5210
12:06:48 PM 21-10-2019 455 33 95 5200
10:54:42 AM 21-10-2019 434 33 95 5190
9:42:19 AM 21-10-2019 443 31 95 5180
8:29:56 AM 21-10-2019 386 30 95 5170
7:17:41 AM 21-10-2019 394 29 95 5160
6:05:30 AM 21-10-2019 384 28 95 5150
3:41:20 AM 21-10-2019 387 29 95 5130
2:29:09 AM 21-10-2019 379 29 95 5120
1:16:58 AM 21-10-2019 400 30 95 5110
12:04:44 AM 21-10-2019 400 30 95 5100
10:52:26 PM 20-10-2019 397 30 95 590
9:40:06 PM 20-10-2019 397 31 95 580
8:27:53 PM 20-10-2019 411 30 95 570
7:15:41 PM 20-10-2019 413 32 95 56129662
6:03:28 PM 20-10-2019 389 34 95 55129662
4:51:16 PM 20-10-2019 403 34 95 54136952
3:39:03 PM 20-10-2019 417 35 95 53129662
2:26:52 PM 20-10-2019 392 34 95 52129662
1:14:38 PM 20-10-2019 393 34 95 51129662
1:11:37 PM 20-10-2019 393 34 95 51129662
11:59:23 AM 20-10-2019 402 34 95 4240
10:47:09 AM 20-10-2019 410 33 95 4230
9:34:55 AM 20-10-2019 401 31 95 4220
8:22:42 AM 20-10-2019 389 29 95 4210
7:10:43 AM 20-10-2019 394 28 95 4200
5:58:29 AM 20-10-2019 400 28 95 4190
4:46:18 AM 20-10-2019 403 28 95 4180
3:34:06 AM 20-10-2019 404 28 95 4170
1:09:42 AM 20-10-2019 384 29 95 4150
11:57:30 PM 19-10-2019 392 29 95 4140
9:33:05 PM 19-10-2019 428 30 95 4120
8:20:52 PM 19-10-2019 429 30 95 4110
7:08:40 PM 19-10-2019 453 30 95 4100
5:56:30 PM 19-10-2019 430 30 95 490
4:44:17 PM 19-10-2019 402 32 95 480
3:32:04 PM 19-10-2019 404 33 95 47136952
2:19:47 PM 19-10-2019 415 35 95 46129662
1:07:35 PM 19-10-2019 406 34 95 450
11:55:22 AM 19-10-2019 405 33 95 440
10:43:09 AM 19-10-2019 394 30 95 430
9:30:55 AM 19-10-2019 404 29 95 420
8:18:42 AM 19-10-2019 389 29 95 410
8:15:41 AM 19-10-2019 389 29 95 410
7:03:27 AM 19-10-2019 408 28 95 3240
5:51:15 AM 19-10-2019 405 28 95 3230
4:39:02 AM 19-10-2019 392 28 95 3220
2:14:34 AM 19-10-2019 414 29 95 3200
1:02:26 AM 19-10-2019 415 29 95 3190
11:50:10 PM 18-10-2019 407 29 95 3180
10:37:57 PM 18-10-2019 407 29 95 3170
9:25:46 PM 18-10-2019 392 29 95 3160
8:13:29 PM 18-10-2019 410 29 95 3150
7:01:13 PM 18-10-2019 398 29 95 3140
5:48:34 PM 18-10-2019 395 29 95 3130
4:26:19 PM 18-10-2019 403 29 95 3120
2:54:20 PM 18-10-2019 421 30 95 3110
1:41:50 PM 18-10-2019 422 33 95 3100
12:29:28 PM 18-10-2019 428 31 95 390
11:17:07 AM 18-10-2019 410 31 95 380
10:03:56 AM 18-10-2019 397 30 95 370
8:51:12 AM 18-10-2019 402 29 95 360
7:38:57 AM 18-10-2019 423 28 95 350
6:26:32 AM 18-10-2019 407 28 95 340
5:14:03 AM 18-10-2019 403 28 95 330
4:01:37 AM 18-10-2019 401 28 95 320
2:48:34 AM 18-10-2019 406 28 95 310
2:45:33 AM 18-10-2019 406 28 95 310
1:31:53 AM 18-10-2019 412 28 95 2240
12:18:56 AM 18-10-2019 393 28 95 2230
11:06:44 PM 17-10-2019 388 28 95 2220
9:54:33 PM 17-10-2019 404 28 95 2210
8:42:22 PM 17-10-2019 417 28 95 2200
6:17:39 PM 17-10-2019 394 30 95 2180
5:05:22 PM 17-10-2019 426 30 95 2170
3:50:55 PM 17-10-2019 427 30 95 2160
2:36:50 PM 17-10-2019 429 30 95 215129662
1:24:17 PM 17-10-2019 404 34 95 2140
12:11:36 PM 17-10-2019 419 33 95 2130
10:58:49 AM 17-10-2019 411 33 95 2120
9:46:07 AM 17-10-2019 403 31 95 2110
8:33:47 AM 17-10-2019 413 30 95 2100
7:21:35 AM 17-10-2019 410 29 95 290
6:09:24 AM 17-10-2019 404 29 95 280
4:57:11 AM 17-10-2019 393 29 95 270
3:45:00 AM 17-10-2019 402 29 95 260
2:32:53 AM 17-10-2019 407 29 95 250
1:20:42 AM 17-10-2019 403 29 95 240
12:08:32 AM 17-10-2019 398 29 95 230
10:56:23 PM 16-10-2019 405 29 95 220
9:44:11 PM 16-10-2019 400 30 95 210
9:41:08 PM 16-10-2019 400 30 95 210
8:28:52 PM 16-10-2019 395 30 95 1240
7:16:17 PM 16-10-2019 409 30 95 1230
6:03:42 PM 16-10-2019 410 31 95 1220
4:51:14 PM 16-10-2019 412 31 95 121129662
3:38:50 PM 16-10-2019 411 34 95 120139359
2:26:29 PM 16-10-2019 418 36 95 119136952
1:14:06 PM 16-10-2019 409 35 95 118129662
12:01:21 PM 16-10-2019 407 34 95 1170
10:48:30 AM 16-10-2019 388 33 95 1160
9:35:43 AM 16-10-2019 382 31 95 1150
8:23:22 AM 16-10-2019 400 29 95 1140
7:11:06 AM 16-10-2019 401 27 95 1130
5:58:55 AM 16-10-2019 401 28 95 1120
4:46:43 AM 16-10-2019 399 28 95 1110
3:34:30 AM 16-10-2019 402 28 95 1100
2:22:17 AM 16-10-2019 401 29 95 190
1:10:00 AM 16-10-2019 401 29 95 180
11:57:46 PM 15-10-2019 401 29 95 170
10:45:34 PM 15-10-2019 394 29 95 160
9:33:21 PM 15-10-2019 399 29 95 150
7:08:54 PM 15-10-2019 388 30 95 130
5:56:34 PM 15-10-2019 395 30 95 12136952
4:43:42 PM 15-10-2019 396 35 95 81136952
3:28:14 PM 15-10-2019 409 35 95 724139359
2:15:50 PM 15-10-2019 404 36 95 723136952
1:03:25 PM 15-10-2019 395 35 95 7220
11:49:06 AM 15-10-2019 403 33 95 7210
10:27:55 AM 15-10-2019 384 32 95 7200
9:12:48 AM 15-10-2019 388 30 95 7190
7:59:38 AM 15-10-2019 379 28 95 7180
5:35:11 AM 15-10-2019 382 28 95 7160
4:22:59 AM 15-10-2019 392 28 95 7150
3:10:46 AM 15-10-2019 386 28 95 7140
1:58:29 AM 15-10-2019 382 28 95 7130
12:46:03 AM 15-10-2019 389 29 95 7120
11:32:31 PM 14-10-2019 392 29 95 7110
10:20:14 PM 14-10-2019 406 29 95 7100
9:08:00 PM 14-10-2019 410 29 95 790
7:55:35 PM 14-10-2019 394 29 95 780
6:43:22 PM 14-10-2019 391 30 95 770
5:31:07 PM 14-10-2019 396 29 95 760
3:06:27 PM 14-10-2019 420 36 95 74129662
1:54:09 PM 14-10-2019 399 34 95 73129662
12:41:57 PM 14-10-2019 408 34 95 720
11:26:33 AM 14-10-2019 404 33 95 710
10:13:52 AM 14-10-2019 410 32 95 6240
9:01:19 AM 14-10-2019 406 29 95 6230
7:49:06 AM 14-10-2019 394 28 95 6220
6:37:00 AM 14-10-2019 394 28 95 6210
5:25:04 AM 14-10-2019 401 28 95 6200
4:12:53 AM 14-10-2019 397 28 95 6190
3:00:42 AM 14-10-2019 394 29 95 6180
1:48:29 AM 14-10-2019 403 29 95 6170
11:24:07 PM 13-10-2019 397 30 95 6150
10:09:46 PM 13-10-2019 410 30 95 6140
8:57:31 PM 13-10-2019 401 30 95 6130
6:33:07 PM 13-10-2019 405 31 95 6110
5:20:53 PM 13-10-2019 418 31 95 6100
4:08:40 PM 13-10-2019 437 31 95 690
2:55:54 PM 13-10-2019 492 31 95 680
1:43:37 PM 13-10-2019 471 32 95 670
12:31:14 PM 13-10-2019 439 32 95 660
11:19:03 AM 13-10-2019 463 31 95 650
10:06:51 AM 13-10-2019 423 30 95 640
7:42:29 AM 13-10-2019 438 28 95 620
6:30:21 AM 13-10-2019 427 28 95 610
6:27:20 AM 13-10-2019 427 28 95 610
5:15:13 AM 13-10-2019 437 28 95 5240
4:03:04 AM 13-10-2019 431 29 95 5230
2:50:57 AM 13-10-2019 446 29 95 5220
1:38:49 AM 13-10-2019 439 29 95 5210
11:14:29 PM 12-10-2019 417 29 95 5190
10:02:21 PM 12-10-2019 445 29 95 5180
8:50:11 PM 12-10-2019 454 29 95 5170
7:37:58 PM 12-10-2019 461 30 95 5160
6:25:47 PM 12-10-2019 479 30 95 5150
5:13:34 PM 12-10-2019 473 30 95 5140
4:01:22 PM 12-10-2019 466 33 95 513129662
2:49:11 PM 12-10-2019 496 34 95 512136952
1:37:00 PM 12-10-2019 466 35 95 5110
11:12:42 AM 12-10-2019 471 32 95 590
10:00:32 AM 12-10-2019 496 31 95 580
8:48:20 AM 12-10-2019 434 29 95 570
7:36:11 AM 12-10-2019 428 28 95 560
6:24:01 AM 12-10-2019 406 28 95 550
5:11:54 AM 12-10-2019 422 28 95 540
3:59:44 AM 12-10-2019 412 28 95 530
2:47:36 AM 12-10-2019 415 29 95 520
1:35:24 AM 12-10-2019 406 29 95 510
1:32:23 AM 12-10-2019 406 29 95 510